Terminal Aerodrome Forecast
Issued by NWS Tuscon, AZ

Home | Current Version | Previous Version | Text Only | Print | Product List | Glossary On
Versions: 1 2 3 4 5 6 7 8 9 10 11 12
177
FTUS45 KTWC 161131
TAFTUS
TAF
KTUS 161131Z 1612/1712 14011KT P6SM SCT250
     FM161900 19012G18KT P6SM FEW150 BKN250
     FM170100 17010KT P6SM SCT130 BKN180
     FM170600 12009KT P6SM SCT080 BKN120=

USA.gov is the U.S. government's official web portal to all federal, state and local government web resources and services.